createdAt,value
2019-06-20T00:01:53.943Z,100287.66
2019-06-20T00:06:17.791Z,100288.97
2019-06-20T00:10:41.882Z,100291.61
2019-06-20T00:15:06.574Z,100291.60
2019-06-20T00:19:31.258Z,100281.33
2019-06-20T00:23:55.405Z,100290.73
2019-06-20T00:28:19.316Z,100287.23
2019-06-20T00:32:43.897Z,100282.59
2019-06-20T00:37:08.332Z,100282.58
2019-06-20T00:41:32.285Z,100271.47
2019-06-20T00:45:56.093Z,100285.03
2019-06-20T00:50:20.158Z,100283.19
2019-06-20T00:54:44.269Z,100299.27
2019-06-20T00:59:08.056Z,100296.64
2019-06-20T01:03:32.917Z,100309.20
2019-06-20T01:07:56.730Z,100294.69
2019-06-20T01:12:21.176Z,100300.96
2019-06-20T01:16:45.533Z,100295.66
2019-06-20T01:21:09.724Z,100295.01
2019-06-20T01:25:41.507Z,100288.73
2019-06-20T01:30:07.657Z,100298.30
2019-06-20T01:34:31.933Z,100302.61
2019-06-20T01:38:55.997Z,100302.63
2019-06-20T01:43:19.804Z,100308.58
2019-06-20T01:47:43.713Z,100313.21
2019-06-20T01:52:07.634Z,100318.17
2019-06-20T01:56:31.466Z,100323.13
2019-06-20T02:00:56.785Z,100323.13
2019-06-20T02:05:20.844Z,100326.93
2019-06-20T02:09:45.802Z,100333.89
2019-06-20T02:14:10.169Z,100322.48
2019-06-20T02:18:35.119Z,100321.66
2019-06-20T02:23:00.127Z,100329.60
2019-06-20T02:27:23.886Z,100331.95
2019-06-20T02:31:47.794Z,100336.89
2019-06-20T02:36:11.653Z,100336.59
2019-06-20T02:40:36.783Z,100345.34
2019-06-20T02:45:05.050Z,100347.17
2019-06-20T02:49:29.435Z,100349.80
2019-06-20T02:53:54.807Z,100345.30
2019-06-20T02:58:19.665Z,100346.48
2019-06-20T03:02:43.921Z,100354.92
2019-06-20T03:07:08.085Z,100358.87
2019-06-20T03:11:32.726Z,100364.12
2019-06-20T03:15:57.289Z,100366.61
2019-06-20T03:20:21.703Z,100369.22
2019-06-20T03:24:46.052Z,100375.64
2019-06-20T03:29:10.755Z,100376.31
2019-06-20T03:33:34.478Z,100381.12
2019-06-20T03:37:59.114Z,100389.87
2019-06-20T03:42:24.368Z,100389.00
2019-06-20T03:46:48.279Z,100389.13
2019-06-20T03:51:13.608Z,100392.55
2019-06-20T03:55:38.005Z,100391.88
2019-06-20T04:00:02.627Z,100412.51
2019-06-20T04:04:28.111Z,100411.34
2019-06-20T04:08:52.790Z,100415.77
2019-06-20T04:13:21.902Z,100420.73
2019-06-20T04:17:45.944Z,100430.81
2019-06-20T04:22:09.829Z,100429.98
2019-06-20T04:26:34.459Z,100429.55
2019-06-20T04:30:58.876Z,100439.12
2019-06-20T04:35:22.573Z,100438.28
2019-06-20T04:39:46.294Z,100438.94
2019-06-20T04:44:11.066Z,100446.16
2019-06-20T04:48:35.083Z,100452.44
2019-06-20T04:52:58.796Z,100455.47
2019-06-20T04:57:22.542Z,100451.34
2019-06-20T05:01:46.386Z,100457.11
2019-06-20T05:06:10.176Z,100458.11
2019-06-20T05:10:33.962Z,100452.28
2019-06-20T05:14:57.725Z,100466.30
2019-06-20T05:19:21.408Z,100469.35
2019-06-20T05:23:45.105Z,100473.38
2019-06-20T05:28:08.792Z,100469.81
2019-06-20T05:32:32.490Z,100475.83
2019-06-20T05:36:57.429Z,100480.81
2019-06-20T05:41:21.112Z,100481.48
2019-06-20T05:45:48.559Z,100494.44
2019-06-20T05:50:13.310Z,100498.36
2019-06-20T05:54:37.014Z,100511.09
2019-06-20T05:59:00.973Z,100515.86
2019-06-20T06:03:25.949Z,100513.22
2019-06-20T06:07:50.901Z,100518.16
2019-06-20T06:12:14.596Z,100514.84
2019-06-20T06:16:38.271Z,100520.94
2019-06-20T06:21:02.536Z,100526.01
2019-06-20T06:25:26.229Z,100535.61
2019-06-20T06:29:50.196Z,100534.26
2019-06-20T06:34:13.873Z,100534.94
2019-06-20T06:38:37.743Z,100529.87
2019-06-20T06:43:01.444Z,100530.06
2019-06-20T06:47:25.517Z,100529.27
2019-06-20T06:51:49.306Z,100523.88
2019-06-20T06:56:12.984Z,100533.53
2019-06-20T07:00:36.742Z,100537.86
2019-06-20T07:05:00.448Z,100531.97
2019-06-20T07:09:24.170Z,100535.48
2019-06-20T07:13:47.866Z,100544.66
2019-06-20T07:18:11.538Z,100544.69
2019-06-20T07:22:35.270Z,100546.00
2019-06-20T07:26:59.031Z,100544.28
2019-06-20T07:31:22.733Z,100543.27
2019-06-20T07:35:46.588Z,100543.27
2019-06-20T07:40:11.120Z,100550.64
2019-06-20T07:44:34.885Z,100550.17
2019-06-20T07:48:59.325Z,100553.05
2019-06-20T07:53:23.136Z,100555.75
2019-06-20T07:57:48.448Z,100559.77
2019-06-20T08:02:12.282Z,100560.16
2019-06-20T08:06:35.972Z,100560.52
2019-06-20T08:10:59.726Z,100563.48
2019-06-20T08:15:23.594Z,100563.64
2019-06-20T08:19:47.355Z,100567.41
2019-06-20T08:24:11.217Z,100562.16
2019-06-20T08:28:35.931Z,100563.91
2019-06-20T08:33:03.544Z,100572.16
2019-06-20T08:37:26.190Z,100588.96
2019-06-20T08:41:49.871Z,100586.68
2019-06-20T08:46:13.566Z,100593.99
2019-06-20T08:50:37.659Z,100590.85
2019-06-20T08:55:01.361Z,100585.86
2019-06-20T08:59:25.094Z,100598.31
2019-06-20T09:03:48.827Z,100592.48
2019-06-20T09:08:12.599Z,100595.30
2019-06-20T09:12:36.358Z,100598.31
2019-06-20T09:17:00.752Z,100597.66
2019-06-20T09:21:24.765Z,100601.78
2019-06-20T09:25:48.730Z,100602.96
2019-06-20T09:30:12.994Z,100595.66
2019-06-20T09:34:36.650Z,100593.48
2019-06-20T09:39:00.787Z,100614.20
2019-06-20T09:43:27.789Z,100615.17
2019-06-20T09:47:52.201Z,100618.78
2019-06-20T09:52:16.077Z,100625.77
2019-06-20T09:56:41.315Z,100629.06
2019-06-20T10:01:05.092Z,100626.55
2019-06-20T10:05:28.793Z,100623.03
2019-06-20T10:09:52.559Z,100618.21
2019-06-20T10:14:16.718Z,100625.31
2019-06-20T10:18:40.401Z,100628.15
2019-06-20T10:23:04.930Z,100628.98
2019-06-20T10:27:28.757Z,100626.00
2019-06-20T10:31:53.165Z,100631.80
2019-06-20T10:36:18.158Z,100636.16
2019-06-20T10:40:41.923Z,100641.29
2019-06-20T10:45:06.671Z,100648.94
2019-06-20T10:49:30.826Z,100647.65
2019-06-20T10:53:54.802Z,100650.63
2019-06-20T10:58:18.735Z,100659.38
2019-06-20T11:02:43.394Z,100659.16
2019-06-20T11:07:07.679Z,100663.50
2019-06-20T11:11:31.436Z,100674.14
2019-06-20T11:15:55.457Z,100672.11
2019-06-20T11:20:19.683Z,100669.01
2019-06-20T11:24:43.571Z,100683.19
2019-06-20T11:29:07.326Z,100681.08
2019-06-20T11:33:31.015Z,100684.92
2019-06-20T11:37:54.718Z,100687.86
2019-06-20T11:42:18.428Z,100699.41
2019-06-20T11:46:42.667Z,100690.70
2019-06-20T11:51:06.552Z,100691.33
2019-06-20T11:55:30.383Z,100697.92
2019-06-20T11:59:54.081Z,100709.95
2019-06-20T12:04:17.779Z,100703.91
2019-06-20T12:08:42.412Z,100706.45
2019-06-20T12:13:06.128Z,100707.42
2019-06-20T12:17:29.881Z,100710.94
2019-06-20T12:21:53.563Z,100712.22
2019-06-20T12:26:17.396Z,100707.95
2019-06-20T12:30:41.598Z,100697.77
2019-06-20T12:35:05.976Z,100702.50
2019-06-20T12:39:29.829Z,100697.00
2019-06-20T12:43:53.508Z,100705.81
2019-06-20T12:48:17.285Z,100693.21
2019-06-20T12:52:42.506Z,100695.55
2019-06-20T12:57:06.327Z,100687.70
2019-06-20T13:01:35.841Z,100690.09
2019-06-20T13:05:55.797Z,100692.98
2019-06-20T13:10:19.979Z,100686.36
2019-06-20T13:14:45.563Z,100693.90
2019-06-20T13:19:09.026Z,100685.16
2019-06-20T13:23:32.944Z,100683.18
2019-06-20T13:27:57.058Z,100684.42
2019-06-20T13:32:20.989Z,100685.66
2019-06-20T13:36:44.769Z,100691.25
2019-06-20T13:41:08.390Z,100686.19
2019-06-20T13:45:32.146Z,100676.77
2019-06-20T13:49:55.828Z,100679.81
2019-06-20T13:54:19.593Z,100666.87
2019-06-20T13:58:44.738Z,100680.33
2019-06-20T14:03:08.822Z,100670.36
2019-06-20T14:07:32.578Z,100672.92
2019-06-20T14:11:56.327Z,100666.16
2019-06-20T14:16:20.091Z,100665.97
2019-06-20T14:20:44.887Z,100663.75
2019-06-20T14:25:08.777Z,100663.75
2019-06-20T14:29:32.475Z,100672.41
2019-06-20T14:33:57.129Z,100672.94
2019-06-20T14:38:21.113Z,100668.90
2019-06-20T14:42:45.969Z,100670.55
2019-06-20T14:47:11.114Z,100666.16
2019-06-20T14:51:35.086Z,100682.75
2019-06-20T14:55:59.009Z,100676.87
2019-06-20T15:00:24.578Z,100677.52
2019-06-20T15:04:48.250Z,100684.66
2019-06-20T15:09:11.949Z,100689.88
2019-06-20T15:13:47.675Z,100686.16
2019-06-20T15:18:11.887Z,100682.52
2019-06-20T15:22:35.730Z,100687.00
2019-06-20T15:26:59.417Z,100687.64
2019-06-20T15:31:25.252Z,100687.54
2019-06-20T15:35:50.642Z,100683.69
2019-06-20T15:40:15.669Z,100678.75
2019-06-20T15:44:39.354Z,100688.11
2019-06-20T15:49:15.329Z,100686.91
2019-06-20T15:53:29.977Z,100686.63
2019-06-20T15:57:54.352Z,100682.34
2019-06-20T16:02:18.221Z,100682.54
2019-06-20T16:06:41.873Z,100687.67
2019-06-20T16:11:05.628Z,100697.05
2019-06-20T16:15:29.361Z,100700.45
2019-06-20T16:19:53.283Z,100698.98
2019-06-20T16:24:16.983Z,100704.03
2019-06-20T16:28:40.669Z,100702.56
2019-06-20T16:33:04.804Z,100708.17
2019-06-20T16:37:28.813Z,100707.50
2019-06-20T16:41:57.341Z,100707.37
2019-06-20T16:46:21.014Z,100706.38
2019-06-20T16:50:44.707Z,100698.12
2019-06-20T16:55:09.063Z,100705.81
2019-06-20T16:59:32.731Z,100709.19
2019-06-20T17:03:56.412Z,100707.05
2019-06-20T17:08:20.411Z,100711.02
2019-06-20T17:12:44.201Z,100722.97
2019-06-20T17:17:07.991Z,100730.16
2019-06-20T17:21:31.631Z,100732.62
2019-06-20T17:25:55.442Z,100744.43
2019-06-20T17:30:21.103Z,100745.28
2019-06-20T17:34:44.798Z,100748.92
2019-06-20T17:39:08.992Z,100753.56
2019-06-20T17:43:33.142Z,100764.05
2019-06-20T17:47:56.962Z,100768.52
2019-06-20T17:52:20.672Z,100763.38
2019-06-20T17:56:44.513Z,100771.00
2019-06-20T18:01:08.240Z,100779.44
2019-06-20T18:05:31.989Z,100785.08
2019-06-20T18:09:55.685Z,100787.36
2019-06-20T18:14:19.430Z,100796.77
2019-06-20T18:18:43.224Z,100803.09
2019-06-20T18:23:06.893Z,100810.22
2019-06-20T18:27:30.667Z,100815.87
2019-06-20T18:31:54.329Z,100817.67
2019-06-20T18:36:18.017Z,100822.78
2019-06-20T18:40:41.761Z,100835.05
2019-06-20T18:45:06.285Z,100843.65
2019-06-20T18:49:30.044Z,100848.20
2019-06-20T18:53:53.727Z,100851.78
2019-06-20T18:58:17.402Z,100860.05
2019-06-20T19:02:41.505Z,100864.05
2019-06-20T19:07:05.254Z,100875.64
2019-06-20T19:11:29.160Z,100877.06
2019-06-20T19:15:52.858Z,100880.44
2019-06-20T19:20:17.869Z,100885.30
2019-06-20T19:24:41.578Z,100891.14
2019-06-20T19:29:05.421Z,100895.73
2019-06-20T19:33:29.221Z,100894.48
2019-06-20T19:37:52.892Z,100900.75
2019-06-20T19:42:16.604Z,100903.41
2019-06-20T19:46:40.595Z,100906.66
2019-06-20T19:51:05.160Z,100919.37
2019-06-20T19:55:29.008Z,100922.78
2019-06-20T19:59:52.748Z,100931.96
2019-06-20T20:04:16.555Z,100928.71
2019-06-20T20:08:40.304Z,100929.04
2019-06-20T20:13:05.298Z,100932.97
2019-06-20T20:17:29.011Z,100938.69
2019-06-20T20:21:52.645Z,100952.34
2019-06-20T20:26:16.311Z,100957.59
2019-06-20T20:30:40.067Z,100982.52
2019-06-20T20:35:03.756Z,100971.69
2019-06-20T20:39:27.428Z,100981.25
2019-06-20T20:43:51.342Z,100975.91
2019-06-20T20:48:16.022Z,100979.03
2019-06-20T20:52:39.699Z,100991.52
2019-06-20T20:57:03.527Z,100978.03
2019-06-20T21:01:35.169Z,100981.88
2019-06-20T21:05:57.695Z,100977.59
2019-06-20T21:10:22.905Z,100980.02
2019-06-20T21:14:46.581Z,100987.33
2019-06-20T21:19:10.273Z,100994.78
2019-06-20T21:23:34.040Z,100997.53
2019-06-20T21:27:57.722Z,101005.52
2019-06-20T21:32:24.974Z,101002.87
2019-06-20T21:36:49.072Z,101009.49
2019-06-20T21:41:12.755Z,101013.94
2019-06-20T21:45:36.562Z,101015.11
2019-06-20T21:50:00.242Z,101028.48
2019-06-20T21:54:23.923Z,101028.48
2019-06-20T21:58:48.875Z,101029.60
2019-06-20T22:03:12.872Z,101035.98
2019-06-20T22:07:36.534Z,101043.70
2019-06-20T22:12:00.217Z,101041.20
2019-06-20T22:16:23.967Z,101049.83
2019-06-20T22:20:47.901Z,101048.67
2019-06-20T22:25:11.827Z,101045.48
2019-06-20T22:29:36.649Z,101045.80
2019-06-20T22:34:00.411Z,101047.34
2019-06-20T22:38:24.128Z,101050.55
2019-06-20T22:42:47.807Z,101052.06
2019-06-20T22:47:11.523Z,101058.08
2019-06-20T22:51:35.187Z,101049.60
2019-06-20T22:55:58.853Z,101054.44
2019-06-20T23:00:22.897Z,101057.23
2019-06-20T23:04:46.577Z,101059.53
2019-06-20T23:09:10.391Z,101066.31
2019-06-20T23:13:34.395Z,101063.68
2019-06-20T23:17:58.472Z,101068.28
2019-06-20T23:22:22.165Z,101076.63
2019-06-20T23:26:45.926Z,101077.88
2019-06-20T23:31:09.648Z,101072.58
2019-06-20T23:35:35.095Z,101068.67
2019-06-20T23:39:58.787Z,101075.17
2019-06-20T23:44:22.487Z,101079.88
2019-06-20T23:48:46.367Z,101078.19
2019-06-20T23:53:16.241Z,101080.02
2019-06-20T23:57:39.930Z,101086.86
